createdAt,value
2019-01-29T00:01:31.502Z,95552.34
2019-01-29T00:04:02.913Z,95558.86
2019-01-29T00:06:33.914Z,95553.91
2019-01-29T00:09:08.860Z,95552.98
2019-01-29T00:11:40.211Z,95550.45
2019-01-29T00:14:11.989Z,95553.27
2019-01-29T00:16:43.382Z,95550.06
2019-01-29T00:19:14.704Z,95554.86
2019-01-29T00:21:45.962Z,95556.20
2019-01-29T00:24:17.193Z,95555.34
2019-01-29T00:26:48.608Z,95556.20
2019-01-29T00:29:20.198Z,95556.70
2019-01-29T00:31:52.305Z,95551.68
2019-01-29T00:34:23.618Z,95560.23
2019-01-29T00:36:55.163Z,95561.17
2019-01-29T00:39:26.485Z,95561.59
2019-01-29T00:41:57.690Z,95557.06
2019-01-29T00:44:29.189Z,95564.31
2019-01-29T00:47:00.434Z,95572.52
2019-01-29T00:49:32.036Z,95575.19
2019-01-29T00:52:03.336Z,95579.06
2019-01-29T00:54:34.623Z,95575.70
2019-01-29T00:57:06.602Z,95577.61
2019-01-29T00:59:37.642Z,95581.81
2019-01-29T01:02:09.021Z,95581.67
2019-01-29T01:04:40.015Z,95583.30
2019-01-29T01:07:11.134Z,95590.73
2019-01-29T01:09:42.094Z,95589.80
2019-01-29T01:12:13.231Z,95591.62
2019-01-29T01:14:44.779Z,95595.16
2019-01-29T01:17:16.141Z,95595.45
2019-01-29T01:19:47.121Z,95595.97
2019-01-29T01:22:18.351Z,95596.60
2019-01-29T01:24:49.875Z,95605.18
2019-01-29T01:27:21.538Z,95606.94
2019-01-29T01:29:52.999Z,95610.20
2019-01-29T01:32:24.304Z,95617.86
2019-01-29T01:34:56.082Z,95612.33
2019-01-29T01:37:27.054Z,95619.13
2019-01-29T01:39:58.729Z,95622.44
2019-01-29T01:42:30.530Z,95627.48
2019-01-29T01:45:01.826Z,95631.91
2019-01-29T01:47:34.469Z,95629.20
2019-01-29T01:50:07.302Z,95631.88
2019-01-29T01:52:38.345Z,95636.08
2019-01-29T01:55:12.735Z,95629.83
2019-01-29T01:57:44.109Z,95634.03
2019-01-29T02:00:20.771Z,95634.25
2019-01-29T02:02:52.120Z,95642.13
2019-01-29T02:05:23.618Z,95641.43
2019-01-29T02:07:55.488Z,95645.66
2019-01-29T02:10:31.684Z,95646.00
2019-01-29T02:13:03.401Z,95651.88
2019-01-29T02:15:35.057Z,95653.48
2019-01-29T02:18:06.509Z,95654.22
2019-01-29T02:20:37.484Z,95656.16
2019-01-29T02:23:08.497Z,95656.59
2019-01-29T02:25:39.416Z,95655.07
2019-01-29T02:28:10.533Z,95654.73
2019-01-29T02:30:42.097Z,95657.23
2019-01-29T02:33:13.148Z,95658.11
2019-01-29T02:35:44.443Z,95662.83
2019-01-29T02:38:15.836Z,95657.07
2019-01-29T02:40:46.796Z,95660.69
2019-01-29T02:43:17.947Z,95663.73
2019-01-29T02:45:49.189Z,95656.52
2019-01-29T02:48:21.133Z,95658.97
2019-01-29T02:50:52.511Z,95661.77
2019-01-29T02:53:23.466Z,95654.30
2019-01-29T02:55:54.692Z,95659.67
2019-01-29T02:58:25.947Z,95652.73
2019-01-29T03:00:57.298Z,95657.56
2019-01-29T03:03:28.621Z,95658.19
2019-01-29T03:05:59.743Z,95658.91
2019-01-29T03:08:30.799Z,95656.70
2019-01-29T03:11:01.836Z,95653.25
2019-01-29T03:13:33.210Z,95654.92
2019-01-29T03:16:04.961Z,95663.25
2019-01-29T03:18:36.047Z,95651.50
2019-01-29T03:21:07.094Z,95656.70
2019-01-29T03:23:38.403Z,95660.33
2019-01-29T03:26:09.612Z,95665.90
2019-01-29T03:28:40.675Z,95654.54
2019-01-29T03:31:11.934Z,95659.47
2019-01-29T03:33:43.183Z,95662.25
2019-01-29T03:36:14.527Z,95661.73
2019-01-29T03:38:45.501Z,95670.28
2019-01-29T03:41:16.804Z,95676.38
2019-01-29T03:43:47.874Z,95675.80
2019-01-29T03:46:19.242Z,95678.66
2019-01-29T03:48:50.861Z,95680.20
2019-01-29T03:51:22.963Z,95679.28
2019-01-29T03:53:53.993Z,95685.20
2019-01-29T03:56:25.034Z,95682.29
2019-01-29T03:58:56.003Z,95687.95
2019-01-29T04:01:27.128Z,95687.67
2019-01-29T04:03:58.212Z,95689.92
2019-01-29T04:06:29.983Z,95688.86
2019-01-29T04:09:02.044Z,95684.84
2019-01-29T04:11:33.756Z,95683.48
2019-01-29T04:14:06.239Z,95687.48
2019-01-29T04:16:37.262Z,95688.51
2019-01-29T04:19:08.623Z,95692.94
2019-01-29T04:21:40.232Z,95699.45
2019-01-29T04:24:11.582Z,95695.36
2019-01-29T04:26:42.908Z,95702.81
2019-01-29T04:29:14.179Z,95706.88
2019-01-29T04:31:45.444Z,95705.64
2019-01-29T04:34:16.421Z,95712.14
2019-01-29T04:36:48.003Z,95706.40
2019-01-29T04:39:19.468Z,95714.76
2019-01-29T04:41:50.859Z,95710.91
2019-01-29T04:44:22.919Z,95718.28
2019-01-29T04:46:54.567Z,95705.53
2019-01-29T04:49:26.090Z,95715.38
2019-01-29T04:51:57.380Z,95707.81
2019-01-29T04:54:28.686Z,95707.94
2019-01-29T04:57:00.243Z,95704.05
2019-01-29T04:59:31.685Z,95711.42
2019-01-29T05:02:02.943Z,95709.13
2019-01-29T05:04:34.067Z,95712.22
2019-01-29T05:07:06.370Z,95709.98
2019-01-29T05:09:37.595Z,95707.19
2019-01-29T05:12:08.712Z,95706.28
2019-01-29T05:14:39.714Z,95712.73
2019-01-29T05:17:11.680Z,95717.11
2019-01-29T05:19:42.677Z,95717.84
2019-01-29T05:22:13.632Z,95724.92
2019-01-29T05:24:44.633Z,95730.84
2019-01-29T05:27:16.555Z,95723.25
2019-01-29T05:29:48.210Z,95724.91
2019-01-29T05:32:19.531Z,95734.20
2019-01-29T05:34:51.913Z,95730.29
2019-01-29T05:37:23.184Z,95735.49
2019-01-29T05:39:54.179Z,95734.06
2019-01-29T05:42:25.177Z,95741.55
2019-01-29T05:58:51.219Z,95755.02
2019-01-29T06:01:22.730Z,95757.48
2019-01-29T06:04:16.171Z,95759.23
2019-01-29T06:06:47.931Z,95759.47
2019-01-29T06:09:18.974Z,95754.80
2019-01-29T06:11:50.716Z,95763.98
2019-01-29T06:14:22.721Z,95754.80
2019-01-29T06:16:53.684Z,95759.20
2019-01-29T06:19:24.887Z,95756.19
2019-01-29T06:21:56.424Z,95758.91
2019-01-29T06:24:27.825Z,95754.50
2019-01-29T06:27:00.090Z,95750.71
2019-01-29T06:29:31.727Z,95754.63
2019-01-29T06:32:03.062Z,95755.12
2019-01-29T06:34:35.385Z,95761.25
2019-01-29T06:37:06.764Z,95763.66
2019-01-29T06:39:38.638Z,95757.52
2019-01-29T06:42:09.699Z,95757.28
2019-01-29T06:44:40.947Z,95756.96
2019-01-29T06:49:41.805Z,95756.14
2019-01-29T06:52:14.359Z,95752.38
2019-01-29T06:54:46.312Z,95755.97
2019-01-29T06:57:17.883Z,95763.20
2019-01-29T06:59:49.417Z,95769.96
2019-01-29T07:02:20.708Z,95766.69
2019-01-29T07:04:52.013Z,95768.61
2019-01-29T07:07:23.072Z,95772.59
2019-01-29T07:09:54.713Z,95776.20
2019-01-29T07:12:25.678Z,95774.40
2019-01-29T07:14:57.151Z,95779.70
2019-01-29T07:17:31.838Z,95788.27
2019-01-29T07:20:05.774Z,95787.47
2019-01-29T07:22:37.701Z,95784.78
2019-01-29T07:25:10.554Z,95787.28
2019-01-29T07:27:41.518Z,95793.47
2019-01-29T07:30:15.007Z,95790.98
2019-01-29T07:32:46.536Z,95794.14
2019-01-29T07:35:17.828Z,95790.85
2019-01-29T07:37:49.584Z,95791.59
2019-01-29T07:40:20.610Z,95788.80
2019-01-29T07:42:51.576Z,95789.28
2019-01-29T07:45:23.710Z,95788.38
2019-01-29T07:47:54.915Z,95791.17
2019-01-29T07:50:26.306Z,95794.64
2019-01-29T07:52:57.668Z,95795.69
2019-01-29T07:55:29.042Z,95792.61
2019-01-29T07:58:00.437Z,95793.52
2019-01-29T08:00:31.831Z,95789.35
2019-01-29T08:03:03.687Z,95792.70
2019-01-29T08:05:35.693Z,95792.27
2019-01-29T08:08:07.293Z,95792.08
2019-01-29T08:10:39.064Z,95794.50
2019-01-29T08:13:10.418Z,95793.75
2019-01-29T08:15:42.055Z,95799.05
2019-01-29T08:18:13.154Z,95793.47
2019-01-29T08:20:44.739Z,95797.23
2019-01-29T08:23:15.721Z,95799.63
2019-01-29T08:25:47.900Z,95790.50
2019-01-29T08:28:19.100Z,95788.42
2019-01-29T08:30:50.147Z,95786.78
2019-01-29T08:33:23.964Z,95784.80
2019-01-29T08:35:54.994Z,95789.01
2019-01-29T08:38:26.371Z,95787.94
2019-01-29T08:40:57.474Z,95782.09
2019-01-29T08:43:29.285Z,95789.16
2019-01-29T08:46:00.570Z,95788.46
2019-01-29T08:48:31.570Z,95787.16
2019-01-29T08:51:03.784Z,95793.97
2019-01-29T08:53:34.871Z,95785.45
2019-01-29T08:56:06.811Z,95787.78
2019-01-29T08:58:38.069Z,95788.94
2019-01-29T09:01:10.092Z,95784.92
2019-01-29T09:03:41.296Z,95777.30
2019-01-29T09:06:12.328Z,95783.84
2019-01-29T09:08:43.662Z,95779.23
2019-01-29T09:11:14.770Z,95777.86
2019-01-29T09:13:45.979Z,95780.45
2019-01-29T09:16:17.303Z,95775.69
2019-01-29T09:18:48.635Z,95760.59
2019-01-29T09:21:20.132Z,95771.37
2019-01-29T09:23:51.151Z,95763.33
2019-01-29T09:26:23.238Z,95760.53
2019-01-29T09:28:54.551Z,95757.37
2019-01-29T09:31:25.493Z,95758.31
2019-01-29T09:33:56.874Z,95761.88
2019-01-29T09:36:27.902Z,95755.50
2019-01-29T09:38:59.047Z,95750.98
2019-01-29T09:41:30.166Z,95750.91
2019-01-29T09:44:01.914Z,95753.22
2019-01-29T09:46:33.467Z,95748.16
2019-01-29T09:49:04.538Z,95740.73
2019-01-29T09:51:35.567Z,95738.59
2019-01-29T09:54:07.534Z,95745.23
2019-01-29T09:56:39.727Z,95742.39
2019-01-29T09:59:11.031Z,95743.17
2019-01-29T10:01:43.232Z,95747.22
2019-01-29T10:04:14.764Z,95743.79
2019-01-29T10:06:45.991Z,95742.58
2019-01-29T10:09:17.350Z,95738.17
2019-01-29T10:11:48.347Z,95736.67
2019-01-29T10:14:19.521Z,95739.09
2019-01-29T10:16:50.699Z,95737.45
2019-01-29T10:19:21.904Z,95737.48
2019-01-29T10:21:53.288Z,95735.67
2019-01-29T10:24:24.333Z,95730.13
2019-01-29T10:26:55.360Z,95732.15
2019-01-29T10:29:26.599Z,95734.75
2019-01-29T10:31:57.547Z,95729.22
2019-01-29T10:34:28.803Z,95717.17
2019-01-29T10:37:00.028Z,95710.86
2019-01-29T10:39:31.308Z,95706.39
2019-01-29T10:42:02.254Z,95704.98
2019-01-29T10:44:33.810Z,95703.66
2019-01-29T10:47:05.151Z,95699.81
2019-01-29T10:49:36.314Z,95700.31
2019-01-29T10:52:07.815Z,95694.01
2019-01-29T10:54:39.059Z,95692.03
2019-01-29T10:57:10.300Z,95685.13
2019-01-29T10:59:41.747Z,95677.08
2019-01-29T11:02:13.165Z,95672.75
2019-01-29T11:04:44.382Z,95670.66
2019-01-29T11:07:15.441Z,95662.20
2019-01-29T11:09:48.353Z,95658.78
2019-01-29T11:12:19.383Z,95659.88
2019-01-29T11:14:50.834Z,95655.41
2019-01-29T11:17:22.530Z,95644.42
2019-01-29T11:19:53.582Z,95639.72
2019-01-29T11:22:24.536Z,95638.73
2019-01-29T11:24:55.859Z,95635.10
2019-01-29T11:27:26.882Z,95629.09
2019-01-29T11:29:57.853Z,95631.12
2019-01-29T11:32:29.386Z,95624.16
2019-01-29T11:35:00.733Z,95617.94
2019-01-29T11:37:32.227Z,95617.91
2019-01-29T11:40:03.276Z,95612.47
2019-01-29T11:42:34.552Z,95599.62
2019-01-29T11:45:08.591Z,95603.75
2019-01-29T11:47:40.617Z,95602.86
2019-01-29T11:50:11.775Z,95599.34
2019-01-29T11:52:42.951Z,95591.33
2019-01-29T11:55:15.044Z,95591.23
2019-01-29T11:57:47.301Z,95593.88
2019-01-29T12:00:28.006Z,95589.89
2019-01-29T12:02:59.398Z,95586.86
2019-01-29T12:05:30.532Z,95574.73
2019-01-29T12:08:01.626Z,95574.33
2019-01-29T12:10:32.594Z,95572.41
2019-01-29T12:13:04.279Z,95566.88
2019-01-29T12:15:35.674Z,95560.98
2019-01-29T12:18:07.507Z,95555.86
2019-01-29T12:20:38.630Z,95558.98
2019-01-29T12:23:10.476Z,95548.23
2019-01-29T12:25:42.201Z,95541.29
2019-01-29T12:28:13.239Z,95539.20
2019-01-29T12:30:45.045Z,95531.77
2019-01-29T12:33:16.920Z,95530.61
2019-01-29T12:35:48.082Z,95524.47
2019-01-29T12:38:19.602Z,95514.64
2019-01-29T12:40:50.648Z,95516.61
2019-01-29T12:43:22.407Z,95507.81
2019-01-29T12:45:53.972Z,95510.10
2019-01-29T12:48:24.977Z,95516.30
2019-01-29T12:50:58.397Z,95502.14
2019-01-29T12:53:36.221Z,95495.50
2019-01-29T12:56:09.742Z,95498.81
2019-01-29T12:58:40.747Z,95491.71
2019-01-29T13:01:12.712Z,95493.01
2019-01-29T13:03:43.670Z,95488.69
2019-01-29T13:06:14.738Z,95484.69
2019-01-29T13:08:46.280Z,95479.64
2019-01-29T13:11:17.702Z,95479.23
2019-01-29T13:13:49.332Z,95472.91
2019-01-29T13:16:20.614Z,95475.21
2019-01-29T13:18:54.173Z,95467.58
2019-01-29T13:21:25.533Z,95463.95
2019-01-29T13:23:56.841Z,95456.99
2019-01-29T13:26:30.063Z,95452.95
2019-01-29T13:29:01.128Z,95453.59
2019-01-29T13:31:32.157Z,95449.16
2019-01-29T13:34:03.353Z,95437.13
2019-01-29T13:36:34.857Z,95441.21
2019-01-29T13:39:09.660Z,95432.43
2019-01-29T13:41:41.163Z,95432.25
2019-01-29T13:44:12.461Z,95430.31
2019-01-29T13:46:44.071Z,95428.88
2019-01-29T13:49:15.491Z,95427.78
2019-01-29T13:51:46.818Z,95418.64
2019-01-29T13:54:18.104Z,95414.52
2019-01-29T13:56:49.403Z,95412.61
2019-01-29T13:59:20.809Z,95411.95
2019-01-29T14:01:52.683Z,95414.25
2019-01-29T14:04:24.455Z,95418.52
2019-01-29T14:06:56.136Z,95410.19
2019-01-29T14:09:28.020Z,95410.69
2019-01-29T14:11:59.433Z,95411.78
2019-01-29T14:14:32.788Z,95404.73
2019-01-29T14:17:04.147Z,95404.97
2019-01-29T14:19:36.072Z,95400.68
2019-01-29T14:22:07.640Z,95396.65
2019-01-29T14:24:38.909Z,95395.02
2019-01-29T14:27:09.967Z,95386.87
2019-01-29T14:29:41.470Z,95380.75
2019-01-29T14:32:12.728Z,95380.55
2019-01-29T14:34:44.164Z,95370.96
2019-01-29T14:37:15.400Z,95376.80
2019-01-29T14:40:16.223Z,95366.22
2019-01-29T14:42:49.635Z,95369.33
2019-01-29T14:45:25.088Z,95368.91
2019-01-29T14:47:56.667Z,95368.80
2019-01-29T14:50:28.415Z,95362.07
2019-01-29T14:52:59.860Z,95357.21
2019-01-29T14:55:31.306Z,95355.74
2019-01-29T14:58:02.805Z,95353.95
2019-01-29T15:00:34.030Z,95353.38
2019-01-29T15:03:05.246Z,95351.05
2019-01-29T15:05:36.816Z,95346.53
2019-01-29T15:08:07.944Z,95341.39
2019-01-29T15:10:38.962Z,95341.44
2019-01-29T15:13:10.003Z,95328.78
2019-01-29T15:15:46.602Z,95323.16
2019-01-29T15:18:30.290Z,95323.29
2019-01-29T15:21:01.346Z,95320.59
2019-01-29T15:23:32.324Z,95315.79
2019-01-29T15:26:03.421Z,95310.84
2019-01-29T15:28:35.116Z,95304.08
2019-01-29T15:31:06.455Z,95309.62
2019-01-29T15:33:37.647Z,95304.78
2019-01-29T15:36:09.158Z,95294.75
2019-01-29T15:38:40.125Z,95295.27
2019-01-29T15:41:11.473Z,95290.05
2019-01-29T15:43:42.696Z,95288.06
2019-01-29T15:46:14.504Z,95280.84
2019-01-29T15:48:45.793Z,95277.95
2019-01-29T15:51:16.847Z,95272.45
2019-01-29T15:53:49.615Z,95267.84
2019-01-29T15:56:20.977Z,95265.61
2019-01-29T15:58:51.927Z,95264.75
2019-01-29T16:01:24.606Z,95256.84
2019-01-29T16:03:56.868Z,95258.80
2019-01-29T16:06:27.860Z,95255.74
2019-01-29T16:08:58.808Z,95245.52
2019-01-29T16:11:30.028Z,95243.26
2019-01-29T16:14:01.364Z,95232.38
2019-01-29T16:16:32.514Z,95228.80
2019-01-29T16:19:03.743Z,95231.30
2019-01-29T16:21:35.485Z,95221.61
2019-01-29T16:24:06.630Z,95218.21
2019-01-29T16:26:37.631Z,95216.50
2019-01-29T16:29:08.917Z,95216.00
2019-01-29T16:31:40.263Z,95208.21
2019-01-29T16:34:11.216Z,95211.53
2019-01-29T16:36:42.228Z,95204.80
2019-01-29T16:39:15.029Z,95200.41
2019-01-29T16:41:46.050Z,95192.31
2019-01-29T16:44:17.261Z,95193.72
2019-01-29T16:46:48.262Z,95184.20
2019-01-29T16:49:19.462Z,95179.32
2019-01-29T16:51:50.504Z,95180.20
2019-01-29T16:54:21.695Z,95178.41
2019-01-29T16:56:53.295Z,95175.23
2019-01-29T16:59:24.894Z,95171.52
2019-01-29T17:01:56.972Z,95166.33
2019-01-29T17:04:28.634Z,95160.84
2019-01-29T17:07:00.124Z,95157.02
2019-01-29T17:09:31.377Z,95157.93
2019-01-29T17:12:03.460Z,95150.71
2019-01-29T17:14:34.424Z,95144.02
2019-01-29T17:17:06.076Z,95143.44
2019-01-29T17:19:37.426Z,95133.04
2019-01-29T17:22:08.739Z,95138.02
2019-01-29T17:24:43.073Z,95124.02
2019-01-29T17:27:14.718Z,95120.53
2019-01-29T17:29:45.814Z,95117.13
2019-01-29T17:32:17.136Z,95108.73
2019-01-29T17:34:48.671Z,95105.02
2019-01-29T17:37:20.272Z,95100.94
2019-01-29T17:39:51.309Z,95101.14
2019-01-29T17:42:22.631Z,95099.03
2019-01-29T17:44:54.303Z,95093.13
2019-01-29T17:47:26.047Z,95092.63
2019-01-29T17:49:57.417Z,95084.94
2019-01-29T17:52:28.441Z,95079.63
2019-01-29T17:54:59.712Z,95078.03
2019-01-29T17:57:31.514Z,95069.72
2019-01-29T18:00:02.728Z,95072.03
2019-01-29T18:02:34.023Z,95064.42
2019-01-29T18:05:05.735Z,95063.54
2019-01-29T18:07:37.446Z,95060.24
2019-01-29T18:10:10.049Z,95065.12
2019-01-29T18:12:41.692Z,95055.80
2019-01-29T18:15:17.342Z,95056.09
2019-01-29T18:17:48.991Z,95053.70
2019-01-29T18:20:21.975Z,95051.59
2019-01-29T18:22:54.103Z,95047.39
2019-01-29T18:25:25.207Z,95038.80
2019-01-29T18:28:01.298Z,95035.91
2019-01-29T18:30:32.041Z,95031.97
2019-01-29T18:33:03.044Z,95030.99
2019-01-29T18:35:34.376Z,95026.95
2019-01-29T18:38:06.676Z,95016.78
2019-01-29T18:40:42.749Z,95012.06
2019-01-29T18:43:14.129Z,95007.58
2019-01-29T18:45:45.749Z,95007.65
2019-01-29T18:48:17.237Z,95008.75
2019-01-29T18:50:48.683Z,95008.63
2019-01-29T18:53:20.620Z,95005.34
2019-01-29T18:55:52.004Z,95003.38
2019-01-29T18:58:24.115Z,95002.73
2019-01-29T19:00:55.163Z,94993.92
2019-01-29T19:03:26.214Z,94979.61
2019-01-29T19:05:57.343Z,94974.53
2019-01-29T19:08:28.604Z,94975.22
2019-01-29T19:10:59.822Z,94972.45
2019-01-29T19:13:31.406Z,94967.64
2019-01-29T19:16:02.364Z,94967.33
2019-01-29T19:18:33.738Z,94963.65
2019-01-29T19:21:04.873Z,94957.09
2019-01-29T19:23:36.743Z,94945.19
2019-01-29T19:26:07.758Z,94946.98
2019-01-29T19:28:38.790Z,94940.47
2019-01-29T19:31:09.769Z,94936.37
2019-01-29T19:33:41.330Z,94929.33
2019-01-29T19:36:12.716Z,94934.09
2019-01-29T19:38:44.059Z,94936.30
2019-01-29T19:41:15.330Z,94932.77
2019-01-29T19:43:46.542Z,94934.77
2019-01-29T19:46:17.852Z,94933.26
2019-01-29T19:48:48.937Z,94932.22
2019-01-29T19:51:20.062Z,94924.66
2019-01-29T19:53:51.699Z,94923.69
2019-01-29T19:56:22.947Z,94922.08
2019-01-29T19:58:55.024Z,94916.00
2019-01-29T20:01:26.602Z,94909.97
2019-01-29T20:03:58.119Z,94913.95
2019-01-29T20:06:31.017Z,94911.00
2019-01-29T20:09:04.372Z,94904.98
2019-01-29T20:11:36.876Z,94900.83
2019-01-29T20:14:08.154Z,94899.37
2019-01-29T20:16:39.674Z,94886.80
2019-01-29T20:19:10.914Z,94887.05
2019-01-29T20:21:42.577Z,94882.30
2019-01-29T20:24:14.090Z,94885.47
2019-01-29T20:26:45.760Z,94884.20
2019-01-29T20:29:16.714Z,94887.13
2019-01-29T20:31:47.708Z,94877.02
2019-01-29T20:34:18.712Z,94876.61
2019-01-29T20:36:50.045Z,94871.73
2019-01-29T20:39:21.233Z,94875.74
2019-01-29T20:41:52.376Z,94866.84
2019-01-29T20:44:23.558Z,94864.82
2019-01-29T20:46:55.347Z,94858.27
2019-01-29T20:49:26.439Z,94852.58
2019-01-29T20:51:57.758Z,94851.53
2019-01-29T20:54:28.869Z,94848.97
2019-01-29T20:57:00.450Z,94846.48
2019-01-29T20:59:31.859Z,94841.00
2019-01-29T21:02:03.430Z,94839.91
2019-01-29T21:04:34.808Z,94830.28
2019-01-29T21:07:06.493Z,94836.38
2019-01-29T21:09:37.564Z,94827.00
2019-01-29T21:12:09.011Z,94817.17
2019-01-29T21:14:40.318Z,94810.91
2019-01-29T21:17:12.178Z,94809.17
2019-01-29T21:19:44.240Z,94802.50
2019-01-29T21:22:16.372Z,94795.92
2019-01-29T21:24:47.735Z,94789.59
2019-01-29T21:27:18.682Z,94779.60
2019-01-29T21:29:50.004Z,94785.36
2019-01-29T21:32:20.968Z,94776.03
2019-01-29T21:34:52.199Z,94769.66
2019-01-29T21:37:23.164Z,94771.55
2019-01-29T21:39:55.442Z,94772.88
2019-01-29T21:42:26.469Z,94766.53
2019-01-29T21:44:57.755Z,94758.39
2019-01-29T21:47:29.304Z,94758.50
2019-01-29T21:50:11.072Z,94746.06
2019-01-29T21:52:33.561Z,94744.59
2019-01-29T21:55:05.271Z,94738.81
2019-01-29T21:57:36.249Z,94739.42
2019-01-29T22:00:29.940Z,94736.17
2019-01-29T22:03:00.979Z,94736.02
2019-01-29T22:05:32.219Z,94730.92
2019-01-29T22:08:03.972Z,94725.93
2019-01-29T22:10:35.266Z,94725.49
2019-01-29T22:13:09.115Z,94722.20
2019-01-29T22:15:41.030Z,94718.83
2019-01-29T22:18:14.264Z,94712.14
2019-01-29T22:20:45.859Z,94706.05
2019-01-29T22:23:17.112Z,94700.00
2019-01-29T22:25:48.439Z,94703.87
2019-01-29T22:28:19.758Z,94702.27
2019-01-29T22:30:51.052Z,94692.92
2019-01-29T22:33:22.079Z,94685.14
2019-01-29T22:35:53.831Z,94681.05
2019-01-29T22:38:25.592Z,94673.15
2019-01-29T22:40:57.068Z,94664.68
2019-01-29T22:43:28.041Z,94656.05
2019-01-29T22:45:59.077Z,94655.38
2019-01-29T22:48:30.715Z,94650.56
2019-01-29T22:51:01.967Z,94642.72
2019-01-29T22:53:32.914Z,94648.48
2019-01-29T22:56:04.944Z,94643.80
2019-01-29T22:58:36.008Z,94638.11
2019-01-29T23:01:40.699Z,94640.91
2019-01-29T23:04:43.889Z,94633.33
2019-01-29T23:07:26.095Z,94630.58
2019-01-29T23:09:58.075Z,94627.58
2019-01-29T23:12:30.824Z,94620.47
2019-01-29T23:15:03.875Z,94617.65
2019-01-29T23:17:35.416Z,94610.36
2019-01-29T23:20:08.202Z,94605.16
2019-01-29T23:22:39.161Z,94601.47
2019-01-29T23:25:11.078Z,94590.52
2019-01-29T23:27:42.057Z,94584.26
2019-01-29T23:30:16.431Z,94578.55
2019-01-29T23:32:47.471Z,94574.59
2019-01-29T23:35:18.499Z,94574.47
2019-01-29T23:37:49.554Z,94572.41
2019-01-29T23:40:21.396Z,94564.14
2019-01-29T23:42:52.671Z,94561.66
2019-01-29T23:45:23.869Z,94562.84
2019-01-29T23:48:01.957Z,94551.45
2019-01-29T23:50:33.321Z,94549.81
2019-01-29T23:53:04.466Z,94548.67
2019-01-29T23:55:35.413Z,94543.20
2019-01-29T23:58:06.644Z,94545.41
